createdAt,value
2023-03-05T00:00:45.142Z,35.27
2023-03-05T00:03:13.168Z,42.57
2023-03-05T00:05:41.223Z,43.60
2023-03-05T00:08:09.035Z,36.50
2023-03-05T00:10:36.887Z,38.00
2023-03-05T00:13:04.822Z,40.00
2023-03-05T00:15:32.864Z,42.80
2023-03-05T00:18:02.125Z,42.10
2023-03-05T00:20:29.969Z,44.00
2023-03-05T00:22:57.792Z,40.27
2023-03-05T00:25:25.766Z,43.03
2023-03-05T00:27:53.638Z,39.23
2023-03-05T00:30:21.460Z,40.47
2023-03-05T00:32:49.301Z,46.37
2023-03-05T00:35:18.646Z,46.43
2023-03-05T00:37:46.629Z,39.47
2023-03-05T00:40:14.740Z,42.07
2023-03-05T00:42:42.750Z,45.63
2023-03-05T00:45:11.880Z,50.23
2023-03-05T00:47:40.307Z,41.43
2023-03-05T00:50:09.447Z,49.67
2023-03-05T00:52:39.109Z,43.00
2023-03-05T00:55:07.680Z,45.87
2023-03-05T00:57:35.517Z,49.73
2023-03-05T01:00:04.002Z,45.80
2023-03-05T01:02:33.810Z,50.20
2023-03-05T01:05:02.821Z,48.03
2023-03-05T01:07:31.023Z,53.33
2023-03-05T01:10:00.293Z,49.70
2023-03-05T01:12:28.084Z,40.80
2023-03-05T01:14:55.920Z,50.87
2023-03-05T01:17:23.770Z,53.67
2023-03-05T01:19:51.678Z,47.83
2023-03-05T01:22:19.559Z,52.90
2023-03-05T01:24:47.574Z,47.53
2023-03-05T01:27:16.965Z,45.53
2023-03-05T01:29:44.907Z,52.17
2023-03-05T01:32:12.921Z,46.27
2023-03-05T01:34:41.935Z,43.67
2023-03-05T01:37:10.060Z,50.90
2023-03-05T01:39:37.896Z,42.67
2023-03-05T01:42:06.205Z,45.17
2023-03-05T01:44:36.189Z,41.87
2023-03-05T01:47:04.399Z,47.73
2023-03-05T01:49:35.195Z,48.00
2023-03-05T01:52:07.582Z,54.80
2023-03-05T01:54:39.814Z,48.97
2023-03-05T01:57:11.233Z,45.83
2023-03-05T01:59:43.017Z,46.07
2023-03-05T02:02:11.015Z,50.57
2023-03-05T02:04:44.774Z,47.83
2023-03-05T02:07:13.692Z,54.17
2023-03-05T02:09:42.726Z,53.97
2023-03-05T02:12:12.747Z,50.30
2023-03-05T02:14:44.035Z,47.87
2023-03-05T02:17:12.894Z,55.83
2023-03-05T02:19:52.134Z,45.53
2023-03-05T02:22:23.835Z,51.20
2023-03-05T02:24:53.390Z,55.17
2023-03-05T02:27:27.200Z,52.13
2023-03-05T02:29:55.580Z,50.87
2023-03-05T02:32:23.505Z,55.60
2023-03-05T02:34:51.330Z,52.07
2023-03-05T02:37:20.929Z,59.70
2023-03-05T02:39:48.739Z,48.63
2023-03-05T02:42:16.735Z,52.17
2023-03-05T02:44:44.692Z,52.17
2023-03-05T02:47:16.089Z,47.67
2023-03-05T02:49:44.498Z,55.03
2023-03-05T02:52:13.415Z,50.30
2023-03-05T02:54:42.805Z,53.57
2023-03-05T02:57:10.671Z,53.73
2023-03-05T02:59:38.562Z,55.07
2023-03-05T03:02:06.650Z,46.10
2023-03-05T03:04:34.465Z,47.10
2023-03-05T03:07:02.382Z,41.30
2023-03-05T03:09:30.358Z,47.33
2023-03-05T03:11:59.568Z,42.90
2023-03-05T03:14:27.515Z,50.17
2023-03-05T03:16:55.316Z,52.27
2023-03-05T03:19:23.235Z,50.37
2023-03-05T03:21:51.173Z,50.30
2023-03-05T03:24:18.952Z,50.97
2023-03-05T03:26:46.816Z,47.93
2023-03-05T03:29:16.042Z,50.13
2023-03-05T03:31:45.536Z,43.10
2023-03-05T03:34:15.024Z,48.53
2023-03-05T03:36:43.024Z,51.63
2023-03-05T03:39:11.400Z,51.17
2023-03-05T03:41:42.425Z,47.27
2023-03-05T03:44:10.725Z,54.00
2023-03-05T03:46:41.889Z,52.00
2023-03-05T03:49:09.752Z,53.70
2023-03-05T03:51:37.639Z,50.17
2023-03-05T03:54:05.595Z,49.33
2023-03-05T03:56:33.412Z,46.10
2023-03-05T03:59:01.278Z,49.63
2023-03-05T04:01:29.202Z,56.70
2023-03-05T04:03:58.379Z,44.50
2023-03-05T04:06:26.500Z,51.63
2023-03-05T04:08:54.611Z,48.27
2023-03-05T04:11:22.475Z,43.60
2023-03-05T04:13:50.413Z,47.17
2023-03-05T04:16:19.586Z,50.97
2023-03-05T04:18:47.451Z,48.80
2023-03-05T04:21:16.679Z,42.87
2023-03-05T04:23:44.615Z,44.70
2023-03-05T04:26:12.682Z,44.20
2023-03-05T04:28:40.478Z,44.83
2023-03-05T04:31:08.291Z,43.37
2023-03-05T04:33:36.286Z,43.13
2023-03-05T04:36:04.822Z,44.83
2023-03-05T04:38:34.009Z,52.70
2023-03-05T04:41:01.864Z,48.30
2023-03-05T04:43:29.642Z,51.27
2023-03-05T04:45:57.571Z,50.63
2023-03-05T04:48:25.697Z,44.33
2023-03-05T04:50:53.485Z,50.87
2023-03-05T04:53:21.374Z,41.00
2023-03-05T04:55:55.314Z,48.90
2023-03-05T04:58:23.687Z,45.27
2023-03-05T05:00:52.670Z,45.93
2023-03-05T05:03:20.562Z,44.30
2023-03-05T05:05:55.431Z,42.30
2023-03-05T05:08:23.654Z,46.83
2023-03-05T05:11:01.371Z,46.17
2023-03-05T05:13:29.244Z,44.23
2023-03-05T05:15:57.557Z,46.90
2023-03-05T05:18:25.534Z,42.97
2023-03-05T05:20:53.443Z,47.77
2023-03-05T05:23:21.270Z,46.50
2023-03-05T05:25:57.281Z,49.10
2023-03-05T05:28:26.607Z,50.90
2023-03-05T05:30:55.939Z,48.90
2023-03-05T05:33:24.578Z,49.83
2023-03-05T05:35:52.505Z,51.33
2023-03-05T05:38:20.754Z,52.83
2023-03-05T05:40:48.606Z,48.27
2023-03-05T05:43:16.573Z,47.77
2023-03-05T05:45:45.816Z,46.63
2023-03-05T05:48:13.736Z,48.93
2023-03-05T05:50:41.575Z,47.00
2023-03-05T05:53:09.358Z,46.90
2023-03-05T05:55:37.202Z,48.77
2023-03-05T05:58:04.988Z,39.43
2023-03-05T06:00:32.791Z,39.27
2023-03-05T06:03:02.047Z,44.10
2023-03-05T06:05:30.047Z,43.77
2023-03-05T06:07:58.133Z,41.57
2023-03-05T06:10:26.002Z,44.70
2023-03-05T06:12:53.788Z,40.10
2023-03-05T06:15:21.628Z,38.63
2023-03-05T06:17:49.460Z,46.23
2023-03-05T06:20:19.887Z,40.90
2023-03-05T06:22:47.877Z,41.20
2023-03-05T06:25:15.730Z,37.30
2023-03-05T06:27:43.799Z,40.70
2023-03-05T06:30:13.271Z,41.17
2023-03-05T06:32:41.090Z,42.63
2023-03-05T06:35:09.868Z,44.03
2023-03-05T06:37:39.031Z,45.30
2023-03-05T06:40:08.688Z,41.97
2023-03-05T06:42:36.584Z,39.87
2023-03-05T06:45:05.034Z,38.10
2023-03-05T06:47:32.876Z,37.80
2023-03-05T06:50:00.696Z,42.47
2023-03-05T06:52:28.570Z,45.73
2023-03-05T06:54:57.750Z,43.33
2023-03-05T06:57:25.557Z,47.57
2023-03-05T06:59:53.409Z,48.67
2023-03-05T07:02:21.242Z,52.87
2023-03-05T07:04:49.205Z,44.80
2023-03-05T07:07:17.268Z,45.43
2023-03-05T07:09:46.080Z,41.37
2023-03-05T07:12:15.538Z,41.77
2023-03-05T07:14:43.566Z,45.17
2023-03-05T07:17:11.538Z,44.80
2023-03-05T07:19:39.782Z,39.77
2023-03-05T07:22:08.252Z,41.30
2023-03-05T07:24:36.615Z,38.27
2023-03-05T07:27:04.911Z,42.13
2023-03-05T07:29:34.455Z,35.23
2023-03-05T07:32:02.944Z,32.63
2023-03-05T07:34:31.224Z,34.93
2023-03-05T07:36:59.484Z,31.23
2023-03-05T07:39:27.620Z,34.27
2023-03-05T07:41:55.641Z,37.93
2023-03-05T07:44:30.333Z,38.17
2023-03-05T07:47:00.000Z,39.40
2023-03-05T07:49:28.321Z,35.47
2023-03-05T07:51:56.177Z,34.73
2023-03-05T07:54:24.230Z,28.07
2023-03-05T07:56:52.451Z,32.00
2023-03-05T07:59:20.347Z,24.57
2023-03-05T08:01:48.477Z,30.97
2023-03-05T08:04:18.064Z,25.63
2023-03-05T08:06:47.079Z,29.80
2023-03-05T08:09:15.290Z,29.90
2023-03-05T08:11:43.614Z,29.60
2023-03-05T08:14:13.025Z,29.87
2023-03-05T08:16:42.339Z,31.03
2023-03-05T08:19:12.254Z,30.67
2023-03-05T08:21:41.817Z,30.80
2023-03-05T08:24:12.013Z,26.93
2023-03-05T08:26:41.491Z,27.33
2023-03-05T08:29:10.889Z,35.27
2023-03-05T08:31:40.328Z,31.40
2023-03-05T08:34:08.763Z,28.17
2023-03-05T08:36:37.095Z,28.23
2023-03-05T08:39:08.502Z,29.13
2023-03-05T08:41:36.710Z,31.23
2023-03-05T08:44:05.468Z,30.07
2023-03-05T08:46:33.943Z,29.07
2023-03-05T08:49:01.949Z,30.23
2023-03-05T08:51:30.349Z,30.03
2023-03-05T08:54:00.135Z,30.97
2023-03-05T08:56:31.662Z,28.77
2023-03-05T08:58:59.681Z,33.37
2023-03-05T09:01:28.037Z,30.50
2023-03-05T09:03:56.541Z,32.57
2023-03-05T09:06:25.130Z,32.73
2023-03-05T09:08:53.704Z,37.00
2023-03-05T09:11:22.409Z,28.83
2023-03-05T09:13:52.181Z,35.77
2023-03-05T09:16:21.787Z,32.20
2023-03-05T09:18:50.016Z,33.03
2023-03-05T09:21:19.067Z,30.83
2023-03-05T09:23:48.012Z,28.27
2023-03-05T09:26:19.254Z,37.13
2023-03-05T09:28:48.659Z,26.90
2023-03-05T09:31:18.225Z,25.87
2023-03-05T09:33:48.286Z,24.90
2023-03-05T09:36:23.209Z,25.00
2023-03-05T09:38:51.877Z,25.10
2023-03-05T09:41:30.302Z,33.37
2023-03-05T09:44:08.878Z,25.33
2023-03-05T09:46:50.949Z,34.00
2023-03-05T09:49:31.809Z,28.83
2023-03-05T09:52:06.764Z,26.80
2023-03-05T09:54:39.941Z,25.70
2023-03-05T09:57:17.525Z,29.33
2023-03-05T09:59:51.052Z,31.03
2023-03-05T10:02:26.339Z,25.77
2023-03-05T10:04:59.812Z,24.33
2023-03-05T10:07:32.203Z,27.80
2023-03-05T10:10:02.641Z,28.47
2023-03-05T10:12:42.603Z,30.53
2023-03-05T10:15:14.492Z,29.70
2023-03-05T10:18:13.343Z,35.60
2023-03-05T10:21:00.321Z,25.77
2023-03-05T10:23:33.028Z,28.87
2023-03-05T10:26:08.528Z,27.63
2023-03-05T10:28:44.367Z,25.10
2023-03-05T10:31:26.652Z,32.50
2023-03-05T10:34:12.254Z,29.07
2023-03-05T10:37:02.451Z,34.47
2023-03-05T10:40:00.446Z,23.97
2023-03-05T10:42:40.982Z,27.33
2023-03-05T10:45:16.680Z,27.83
2023-03-05T10:47:49.694Z,25.67
2023-03-05T10:50:21.953Z,27.03
2023-03-05T10:53:02.069Z,27.53
2023-03-05T10:55:29.986Z,30.13
2023-03-05T10:57:57.998Z,27.73
2023-03-05T11:00:27.754Z,26.57
2023-03-05T11:03:00.208Z,25.17
2023-03-05T11:05:42.791Z,30.33
2023-03-05T11:08:30.144Z,26.13
2023-03-05T11:11:22.707Z,24.43
2023-03-05T11:13:57.132Z,31.67
2023-03-05T11:16:27.510Z,29.13
2023-03-05T11:19:20.447Z,24.47
2023-03-05T11:22:07.611Z,26.70
2023-03-05T11:24:35.461Z,26.93
2023-03-05T11:27:03.965Z,23.13
2023-03-05T11:29:33.640Z,27.13
2023-03-05T11:32:17.452Z,26.93
2023-03-05T11:34:46.087Z,24.30
2023-03-05T11:37:24.720Z,26.27
2023-03-05T11:40:16.653Z,27.97
2023-03-05T11:42:45.179Z,32.07
2023-03-05T11:45:18.808Z,34.03
2023-03-05T11:47:49.838Z,27.87
2023-03-05T11:50:23.268Z,30.97
2023-03-05T11:52:54.659Z,33.00
2023-03-05T11:55:27.937Z,30.50
2023-03-05T11:58:05.774Z,26.43
2023-03-05T12:00:37.008Z,28.30
2023-03-05T12:03:12.219Z,31.20
2023-03-05T12:05:42.704Z,27.93
2023-03-05T12:08:16.428Z,30.27
2023-03-05T12:10:44.420Z,24.47
2023-03-05T12:13:21.112Z,30.93
2023-03-05T12:16:01.768Z,29.57
2023-03-05T12:18:38.408Z,32.00
2023-03-05T12:21:15.494Z,30.90
2023-03-05T12:23:50.773Z,73.40
2023-03-05T12:26:18.996Z,38.20
2023-03-05T12:29:04.734Z,34.13
2023-03-05T12:31:38.679Z,38.13
2023-03-05T12:34:40.497Z,40.57
2023-03-05T12:37:12.608Z,36.47
2023-03-05T12:39:58.230Z,35.50
2023-03-05T12:42:52.554Z,36.27
2023-03-05T12:45:41.993Z,35.97
2023-03-05T12:48:45.155Z,35.63
2023-03-05T12:51:30.709Z,47.57
2023-03-05T12:53:59.731Z,36.80
2023-03-05T12:56:34.532Z,37.83
2023-03-05T12:59:04.641Z,31.63
2023-03-05T13:01:41.561Z,32.40
2023-03-05T13:04:17.457Z,27.50
2023-03-05T13:06:45.279Z,31.93
2023-03-05T13:09:19.022Z,31.17
2023-03-05T13:11:51.000Z,29.40
2023-03-05T13:14:31.137Z,28.17
2023-03-05T13:16:59.486Z,27.43
2023-03-05T13:19:27.935Z,32.20
2023-03-05T13:21:59.805Z,34.07
2023-03-05T13:24:29.195Z,36.07
2023-03-05T13:26:58.478Z,35.87
2023-03-05T13:29:28.362Z,36.37
2023-03-05T13:31:58.501Z,31.60
2023-03-05T13:34:40.850Z,33.60
2023-03-05T13:37:18.758Z,30.80
2023-03-05T13:39:51.290Z,29.23
2023-03-05T13:42:24.036Z,28.93
2023-03-05T13:44:55.928Z,30.47
2023-03-05T13:47:28.395Z,33.63
2023-03-05T13:49:59.853Z,25.33
2023-03-05T13:52:30.855Z,27.27
2023-03-05T13:54:59.655Z,27.00
2023-03-05T13:57:40.568Z,29.63
2023-03-05T14:00:27.471Z,31.80
2023-03-05T14:02:59.500Z,41.10
2023-03-05T14:05:28.193Z,28.27
2023-03-05T14:07:56.720Z,25.73
2023-03-05T14:10:35.365Z,27.77
2023-03-05T14:13:07.010Z,25.77
2023-03-05T14:15:36.545Z,29.00
2023-03-05T14:18:19.917Z,28.13
2023-03-05T14:21:03.859Z,22.70
2023-03-05T14:23:37.623Z,27.07
2023-03-05T14:26:33.475Z,24.73
2023-03-05T14:29:05.222Z,62.80
2023-03-05T14:31:47.049Z,29.27
2023-03-05T14:34:24.344Z,31.73
2023-03-05T14:36:54.663Z,37.97
2023-03-05T14:39:29.581Z,27.17
2023-03-05T14:42:13.359Z,31.20
2023-03-05T14:44:43.622Z,26.50
2023-03-05T14:47:11.419Z,28.27
2023-03-05T14:49:39.689Z,39.57
2023-03-05T14:52:07.572Z,38.53
2023-03-05T14:54:38.581Z,37.43
2023-03-05T14:57:07.136Z,31.63
2023-03-05T14:59:34.970Z,29.97
2023-03-05T15:02:04.227Z,30.47
2023-03-05T15:04:32.076Z,30.53
2023-03-05T15:06:59.879Z,33.23
2023-03-05T15:09:27.828Z,31.87
2023-03-05T15:11:55.720Z,34.50
2023-03-05T15:14:23.682Z,31.43
2023-03-05T15:16:51.612Z,32.93
2023-03-05T15:19:20.823Z,34.77
2023-03-05T15:21:48.645Z,31.97
2023-03-05T15:24:16.485Z,28.23
2023-03-05T15:26:45.055Z,31.27
2023-03-05T15:29:12.867Z,31.97
2023-03-05T15:31:40.825Z,36.50
2023-03-05T15:34:08.741Z,34.10
2023-03-05T15:36:37.962Z,34.93
2023-03-05T15:39:05.836Z,29.03
2023-03-05T15:41:33.682Z,34.23
2023-03-05T15:44:01.516Z,31.77
2023-03-05T15:46:29.350Z,35.80
2023-03-05T15:48:57.169Z,34.43
2023-03-05T15:51:25.037Z,31.40
2023-03-05T15:53:54.512Z,36.03
2023-03-05T15:56:22.390Z,44.60
2023-03-05T15:58:50.768Z,30.97
2023-03-05T16:01:20.770Z,38.40
2023-03-05T16:03:49.122Z,35.63
2023-03-05T16:06:22.489Z,29.03
2023-03-05T16:08:52.377Z,34.80
2023-03-05T16:11:22.442Z,34.07
2023-03-05T16:13:51.521Z,33.87
2023-03-05T16:16:20.303Z,33.37
2023-03-05T16:18:48.927Z,32.43
2023-03-05T16:21:16.894Z,31.47
2023-03-05T16:23:44.978Z,29.90
2023-03-05T16:26:12.753Z,37.27
2023-03-05T16:28:42.000Z,35.00
2023-03-05T16:31:09.824Z,26.83
2023-03-05T16:33:37.683Z,34.30
2023-03-05T16:36:24.036Z,32.90
2023-03-05T16:38:53.451Z,35.63
2023-03-05T16:41:24.389Z,47.00
2023-03-05T16:43:56.363Z,47.90
2023-03-05T16:46:24.655Z,47.30
2023-03-05T16:48:52.713Z,35.43
2023-03-05T16:51:21.774Z,35.93
2023-03-05T16:53:49.623Z,44.03
2023-03-05T16:56:17.610Z,42.93
2023-03-05T16:58:45.712Z,36.70
2023-03-05T17:01:19.083Z,38.63
2023-03-05T17:03:47.324Z,40.83
2023-03-05T17:06:17.905Z,33.80
2023-03-05T17:08:47.600Z,33.53
2023-03-05T17:11:16.413Z,31.53
2023-03-05T17:13:45.921Z,33.30
2023-03-05T17:16:18.466Z,30.77
2023-03-05T17:18:47.077Z,33.90
2023-03-05T17:21:15.680Z,32.07
2023-03-05T17:23:44.009Z,36.70
2023-03-05T17:26:14.237Z,36.90
2023-03-05T17:28:42.236Z,40.20
2023-03-05T17:31:10.353Z,50.43
2023-03-05T17:33:41.422Z,35.67
2023-03-05T17:36:14.834Z,35.33
2023-03-05T17:38:43.052Z,35.87
2023-03-05T17:41:11.429Z,37.40
2023-03-05T17:43:39.303Z,42.13
2023-03-05T17:46:07.888Z,37.47
2023-03-05T17:48:38.791Z,50.80
2023-03-05T17:51:08.934Z,43.97
2023-03-05T17:53:38.914Z,50.93
2023-03-05T17:56:08.736Z,55.37
2023-03-05T17:58:36.868Z,46.87
2023-03-05T18:01:05.508Z,36.80
2023-03-05T18:03:33.460Z,36.67
2023-03-05T18:06:01.262Z,40.37
2023-03-05T18:08:30.518Z,42.87
2023-03-05T18:10:58.450Z,35.80
2023-03-05T18:13:26.372Z,38.70
2023-03-05T18:15:54.279Z,41.60
2023-03-05T18:18:22.117Z,37.83
2023-03-05T18:20:50.669Z,39.53
2023-03-05T18:23:18.605Z,41.53
2023-03-05T18:25:48.035Z,40.73
2023-03-05T18:28:16.981Z,45.40
2023-03-05T18:30:46.332Z,41.50
2023-03-05T18:33:18.712Z,36.37
2023-03-05T18:35:46.743Z,37.60
2023-03-05T18:38:14.675Z,33.40
2023-03-05T18:40:43.743Z,33.63
2023-03-05T18:43:12.927Z,29.00
2023-03-05T18:45:40.840Z,33.10
2023-03-05T18:48:08.770Z,40.67
2023-03-05T18:50:36.906Z,58.30
2023-03-05T18:53:04.742Z,50.33
2023-03-05T18:55:33.027Z,42.93
2023-03-05T18:58:00.953Z,40.57
2023-03-05T19:00:31.848Z,53.27
2023-03-05T19:03:00.116Z,42.93
2023-03-05T19:05:28.097Z,40.17
2023-03-05T19:07:56.645Z,39.53
2023-03-05T19:10:25.285Z,40.70
2023-03-05T19:13:05.297Z,38.13
2023-03-05T19:15:34.790Z,35.53
2023-03-05T19:18:02.648Z,35.63
2023-03-05T19:20:30.491Z,36.93
2023-03-05T19:22:58.307Z,41.07
2023-03-05T19:25:26.205Z,39.00
2023-03-05T19:27:54.065Z,36.60
2023-03-05T19:30:22.173Z,37.23
2023-03-05T19:32:51.438Z,41.47
2023-03-05T19:35:19.973Z,38.03
2023-03-05T19:37:47.875Z,42.67
2023-03-05T19:40:15.914Z,37.47
2023-03-05T19:42:43.857Z,41.40
2023-03-05T19:45:12.290Z,35.03
2023-03-05T19:47:40.212Z,34.73
2023-03-05T19:50:10.260Z,35.87
2023-03-05T19:52:38.067Z,37.13
2023-03-05T19:55:06.845Z,34.80
2023-03-05T19:57:34.709Z,34.20
2023-03-05T20:00:02.575Z,35.17
2023-03-05T20:02:32.946Z,36.10
2023-03-05T20:05:00.937Z,33.97
2023-03-05T20:07:30.224Z,36.00
2023-03-05T20:09:58.182Z,38.50
2023-03-05T20:12:26.243Z,36.90
2023-03-05T20:14:54.114Z,37.43
2023-03-05T20:17:22.002Z,35.73
2023-03-05T20:19:49.823Z,37.43
2023-03-05T20:22:17.710Z,37.83
2023-03-05T20:24:47.336Z,32.07
2023-03-05T20:27:15.222Z,27.90
2023-03-05T20:29:43.035Z,25.77
2023-03-05T20:32:10.868Z,26.33
2023-03-05T20:34:38.798Z,43.67
2023-03-05T20:37:07.542Z,34.80
2023-03-05T20:39:35.367Z,67.13
2023-03-05T20:42:04.652Z,46.83
2023-03-05T20:44:32.476Z,38.87
2023-03-05T20:47:12.517Z,30.83
2023-03-05T20:49:40.409Z,35.97
2023-03-05T20:52:08.237Z,36.27
2023-03-05T20:54:36.366Z,47.13
2023-03-05T20:57:05.617Z,51.13
2023-03-05T20:59:33.471Z,48.00
2023-03-05T21:02:01.377Z,48.43
2023-03-05T21:04:29.446Z,44.40
2023-03-05T21:06:57.508Z,41.83
2023-03-05T21:09:25.371Z,31.60
2023-03-05T21:11:53.252Z,29.50
2023-03-05T21:14:22.506Z,29.37
2023-03-05T21:16:50.375Z,31.93
2023-03-05T21:19:18.240Z,33.43
2023-03-05T21:21:46.226Z,35.77
2023-03-05T21:24:16.519Z,33.63
2023-03-05T21:26:44.337Z,30.77
2023-03-05T21:29:12.225Z,37.67
2023-03-05T21:31:41.617Z,32.13
2023-03-05T21:34:09.512Z,35.10
2023-03-05T21:36:37.395Z,34.77
2023-03-05T21:39:05.428Z,36.90
2023-03-05T21:41:33.420Z,41.73
2023-03-05T21:44:04.034Z,56.20
2023-03-05T21:46:32.153Z,39.40
2023-03-05T21:49:01.385Z,35.70
2023-03-05T21:51:38.723Z,33.70
2023-03-05T21:54:07.105Z,29.43
2023-03-05T21:56:35.005Z,27.30
2023-03-05T21:59:03.112Z,29.37
2023-03-05T22:01:31.142Z,28.10
2023-03-05T22:03:59.006Z,24.97
2023-03-05T22:06:28.408Z,31.87
2023-03-05T22:08:56.538Z,27.37
2023-03-05T22:11:24.400Z,26.17
2023-03-05T22:13:52.350Z,29.17
2023-03-05T22:16:24.255Z,35.63
2023-03-05T22:18:53.181Z,47.20
2023-03-05T22:21:23.671Z,43.10
2023-03-05T22:23:54.188Z,44.50
2023-03-05T22:26:22.067Z,44.30
2023-03-05T22:28:50.403Z,45.10
2023-03-05T22:31:21.876Z,46.00
2023-03-05T22:33:50.085Z,40.97
2023-03-05T22:36:18.390Z,40.13
2023-03-05T22:38:46.701Z,39.50
2023-03-05T22:41:19.714Z,60.10
2023-03-05T22:43:48.306Z,46.27
2023-03-05T22:46:19.098Z,43.43
2023-03-05T22:48:47.313Z,36.13
2023-03-05T22:51:15.891Z,32.97
2023-03-05T22:53:45.909Z,27.83
2023-03-05T22:56:17.223Z,28.10
2023-03-05T22:58:45.371Z,27.07
2023-03-05T23:01:14.240Z,33.53
2023-03-05T23:03:42.771Z,28.10
2023-03-05T23:06:11.530Z,30.93
2023-03-05T23:08:39.427Z,27.57
2023-03-05T23:11:11.756Z,25.40
2023-03-05T23:13:41.660Z,24.90
2023-03-05T23:16:10.020Z,26.03
2023-03-05T23:18:38.407Z,23.23
2023-03-05T23:21:06.662Z,26.70
2023-03-05T23:23:34.616Z,21.70
2023-03-05T23:26:02.885Z,20.97
2023-03-05T23:28:30.746Z,20.83
2023-03-05T23:31:00.044Z,26.20
2023-03-05T23:33:28.015Z,23.90
2023-03-05T23:35:57.866Z,22.37
2023-03-05T23:38:27.259Z,21.57
2023-03-05T23:40:58.528Z,23.47
2023-03-05T23:43:28.322Z,18.80
2023-03-05T23:45:56.589Z,19.83
2023-03-05T23:48:27.460Z,23.10
2023-03-05T23:50:56.188Z,19.10
2023-03-05T23:53:26.125Z,22.23
2023-03-05T23:55:55.016Z,22.37
2023-03-05T23:58:23.276Z,23.70
